sensor_id;sensor_type;location;lat;lon;timestamp;temperature;humidity
68977;SHT31;56029;52.568;13.588;2023-12-14T00:01:12;3.46;99.99
68977;SHT31;56029;52.568;13.588;2023-12-14T00:03:38;3.41;99.99
68977;SHT31;56029;52.568;13.588;2023-12-14T00:06:03;3.43;99.99
68977;SHT31;56029;52.568;13.588;2023-12-14T00:08:29;3.46;99.99
68977;SHT31;56029;52.568;13.588;2023-12-14T00:10:54;3.49;99.99
68977;SHT31;56029;52.568;13.588;2023-12-14T00:13:20;3.49;99.99
68977;SHT31;56029;52.568;13.588;2023-12-14T00:15:45;3.35;99.99
68977;SHT31;56029;52.568;13.588;2023-12-14T00:18:11;3.49;99.99
68977;SHT31;56029;52.568;13.588;2023-12-14T00:20:36;3.39;99.99
68977;SHT31;56029;52.568;13.588;2023-12-14T00:23:02;3.28;99.99
68977;SHT31;56029;52.568;13.588;2023-12-14T00:25:27;3.24;99.99
68977;SHT31;56029;52.568;13.588;2023-12-14T00:27:53;3.20;99.99
68977;SHT31;56029;52.568;13.588;2023-12-14T00:30:19;3.22;99.99
68977;SHT31;56029;52.568;13.588;2023-12-14T00:32:44;3.21;99.99
68977;SHT31;56029;52.568;13.588;2023-12-14T00:35:10;3.21;99.99
68977;SHT31;56029;52.568;13.588;2023-12-14T00:37:35;3.11;99.99
68977;SHT31;56029;52.568;13.588;2023-12-14T00:40:01;3.04;99.99
68977;SHT31;56029;52.568;13.588;2023-12-14T00:42:26;3.03;99.99
68977;SHT31;56029;52.568;13.588;2023-12-14T00:44:52;3.07;99.99
68977;SHT31;56029;52.568;13.588;2023-12-14T00:47:17;3.00;99.99
68977;SHT31;56029;52.568;13.588;2023-12-14T00:49:43;3.10;99.99
68977;SHT31;56029;52.568;13.588;2023-12-14T00:52:08;3.10;99.99
68977;SHT31;56029;52.568;13.588;2023-12-14T00:54:34;2.99;99.99
68977;SHT31;56029;52.568;13.588;2023-12-14T00:56:59;3.05;99.99
68977;SHT31;56029;52.568;13.588;2023-12-14T00:59:25;3.08;99.99
68977;SHT31;56029;52.568;13.588;2023-12-14T01:01:50;3.07;99.99
68977;SHT31;56029;52.568;13.588;2023-12-14T01:04:16;3.04;99.99
68977;SHT31;56029;52.568;13.588;2023-12-14T01:06:41;3.03;99.99
68977;SHT31;56029;52.568;13.588;2023-12-14T01:09:07;3.08;99.99
68977;SHT31;56029;52.568;13.588;2023-12-14T01:11:33;3.07;99.99
68977;SHT31;56029;52.568;13.588;2023-12-14T01:13:58;3.10;99.99
68977;SHT31;56029;52.568;13.588;2023-12-14T01:16:26;3.05;99.99
68977;SHT31;56029;52.568;13.588;2023-12-14T01:18:51;3.11;99.99
68977;SHT31;56029;52.568;13.588;2023-12-14T01:21:17;3.10;99.99
68977;SHT31;56029;52.568;13.588;2023-12-14T01:23:42;3.01;99.99
68977;SHT31;56029;52.568;13.588;2023-12-14T01:26:08;3.04;99.99
68977;SHT31;56029;52.568;13.588;2023-12-14T01:28:33;3.11;99.99
68977;SHT31;56029;52.568;13.588;2023-12-14T01:30:59;3.05;99.99
68977;SHT31;56029;52.568;13.588;2023-12-14T01:33:24;3.11;99.99
68977;SHT31;56029;52.568;13.588;2023-12-14T01:35:50;3.08;99.99
68977;SHT31;56029;52.568;13.588;2023-12-14T01:38:15;3.10;99.99
68977;SHT31;56029;52.568;13.588;2023-12-14T01:40:41;3.08;99.99
68977;SHT31;56029;52.568;13.588;2023-12-14T01:43:08;3.10;99.99
68977;SHT31;56029;52.568;13.588;2023-12-14T01:45:33;3.14;99.99
68977;SHT31;56029;52.568;13.588;2023-12-14T01:47:59;3.05;99.99
68977;SHT31;56029;52.568;13.588;2023-12-14T01:50:24;3.04;99.99
68977;SHT31;56029;52.568;13.588;2023-12-14T01:52:50;3.04;99.99
68977;SHT31;56029;52.568;13.588;2023-12-14T01:55:15;3.05;99.99
68977;SHT31;56029;52.568;13.588;2023-12-14T01:57:41;2.99;99.99
68977;SHT31;56029;52.568;13.588;2023-12-14T02:00:07;3.04;99.99
68977;SHT31;56029;52.568;13.588;2023-12-14T02:02:38;3.00;99.99
68977;SHT31;56029;52.568;13.588;2023-12-14T02:05:04;3.01;99.99
68977;SHT31;56029;52.568;13.588;2023-12-14T02:07:29;2.90;99.99
68977;SHT31;56029;52.568;13.588;2023-12-14T02:09:55;2.90;99.99
68977;SHT31;56029;52.568;13.588;2023-12-14T02:12:20;2.91;99.99
68977;SHT31;56029;52.568;13.588;2023-12-14T02:14:48;2.84;99.99
68977;SHT31;56029;52.568;13.588;2023-12-14T02:17:14;2.90;99.99
68977;SHT31;56029;52.568;13.588;2023-12-14T02:19:39;2.84;99.99
68977;SHT31;56029;52.568;13.588;2023-12-14T02:22:05;2.93;99.99
68977;SHT31;56029;52.568;13.588;2023-12-14T02:24:30;2.84;99.99
68977;SHT31;56029;52.568;13.588;2023-12-14T02:26:56;2.86;99.99
68977;SHT31;56029;52.568;13.588;2023-12-14T02:29:22;2.83;99.99
68977;SHT31;56029;52.568;13.588;2023-12-14T02:31:47;2.90;99.99
68977;SHT31;56029;52.568;13.588;2023-12-14T02:34:13;2.83;99.99
68977;SHT31;56029;52.568;13.588;2023-12-14T02:36:39;2.77;99.99
68977;SHT31;56029;52.568;13.588;2023-12-14T02:39:04;2.73;99.99
68977;SHT31;56029;52.568;13.588;2023-12-14T02:41:30;2.76;99.99
68977;SHT31;56029;52.568;13.588;2023-12-14T02:43:55;2.77;99.99
68977;SHT31;56029;52.568;13.588;2023-12-14T02:46:21;2.80;99.99
68977;SHT31;56029;52.568;13.588;2023-12-14T02:48:46;2.70;99.99
68977;SHT31;56029;52.568;13.588;2023-12-14T02:51:13;2.73;99.99
68977;SHT31;56029;52.568;13.588;2023-12-14T02:53:38;2.69;99.99
68977;SHT31;56029;52.568;13.588;2023-12-14T02:56:04;2.77;99.99
68977;SHT31;56029;52.568;13.588;2023-12-14T02:58:30;2.66;99.99
68977;SHT31;56029;52.568;13.588;2023-12-14T03:00:55;2.70;99.99
68977;SHT31;56029;52.568;13.588;2023-12-14T03:03:21;2.76;99.99
68977;SHT31;56029;52.568;13.588;2023-12-14T03:05:47;2.70;99.99
68977;SHT31;56029;52.568;13.588;2023-12-14T03:08:12;2.72;99.99
68977;SHT31;56029;52.568;13.588;2023-12-14T03:10:38;2.72;99.99
68977;SHT31;56029;52.568;13.588;2023-12-14T03:13:04;2.66;99.99
68977;SHT31;56029;52.568;13.588;2023-12-14T03:15:29;2.77;99.99
68977;SHT31;56029;52.568;13.588;2023-12-14T03:17:55;2.75;99.99
68977;SHT31;56029;52.568;13.588;2023-12-14T03:20:20;2.81;99.99
68977;SHT31;56029;52.568;13.588;2023-12-14T03:22:46;2.76;99.99
68977;SHT31;56029;52.568;13.588;2023-12-14T03:25:12;2.75;99.99
68977;SHT31;56029;52.568;13.588;2023-12-14T03:27:38;2.80;99.99
68977;SHT31;56029;52.568;13.588;2023-12-14T03:30:04;2.79;99.99
68977;SHT31;56029;52.568;13.588;2023-12-14T03:32:30;2.75;99.99
68977;SHT31;56029;52.568;13.588;2023-12-14T03:34:55;2.84;99.99
68977;SHT31;56029;52.568;13.588;2023-12-14T03:37:21;2.81;99.99
68977;SHT31;56029;52.568;13.588;2023-12-14T03:39:46;2.70;99.99
68977;SHT31;56029;52.568;13.588;2023-12-14T03:42:12;2.76;99.99
68977;SHT31;56029;52.568;13.588;2023-12-14T03:44:37;2.79;99.99
68977;SHT31;56029;52.568;13.588;2023-12-14T03:47:03;2.70;99.99
68977;SHT31;56029;52.568;13.588;2023-12-14T03:49:29;2.72;99.99
68977;SHT31;56029;52.568;13.588;2023-12-14T03:51:54;2.76;99.99
68977;SHT31;56029;52.568;13.588;2023-12-14T03:54:20;2.73;99.99
68977;SHT31;56029;52.568;13.588;2023-12-14T03:56:45;2.76;99.99
68977;SHT31;56029;52.568;13.588;2023-12-14T03:59:11;2.80;99.99
68977;SHT31;56029;52.568;13.588;2023-12-14T04:01:36;2.80;99.99
68977;SHT31;56029;52.568;13.588;2023-12-14T04:04:02;2.77;99.99
68977;SHT31;56029;52.568;13.588;2023-12-14T04:06:27;2.79;99.99
68977;SHT31;56029;52.568;13.588;2023-12-14T04:08:53;2.77;99.99
68977;SHT31;56029;52.568;13.588;2023-12-14T04:11:18;2.83;99.99
68977;SHT31;56029;52.568;13.588;2023-12-14T04:13:44;2.76;99.99
68977;SHT31;56029;52.568;13.588;2023-12-14T04:16:09;2.89;99.99
68977;SHT31;56029;52.568;13.588;2023-12-14T04:18:35;2.79;99.99
68977;SHT31;56029;52.568;13.588;2023-12-14T04:21:00;2.87;99.99
68977;SHT31;56029;52.568;13.588;2023-12-14T04:23:26;2.93;99.99
68977;SHT31;56029;52.568;13.588;2023-12-14T04:25:52;2.93;99.99
68977;SHT31;56029;52.568;13.588;2023-12-14T04:28:17;2.90;99.99
68977;SHT31;56029;52.568;13.588;2023-12-14T04:30:43;2.86;99.99
68977;SHT31;56029;52.568;13.588;2023-12-14T04:33:08;2.90;99.99
68977;SHT31;56029;52.568;13.588;2023-12-14T04:35:34;2.96;99.99
68977;SHT31;56029;52.568;13.588;2023-12-14T04:37:59;2.94;99.99
68977;SHT31;56029;52.568;13.588;2023-12-14T04:40:25;2.96;99.99
68977;SHT31;56029;52.568;13.588;2023-12-14T04:42:50;2.94;99.99
68977;SHT31;56029;52.568;13.588;2023-12-14T04:45:16;2.97;99.99
68977;SHT31;56029;52.568;13.588;2023-12-14T04:47:41;2.93;99.99
68977;SHT31;56029;52.568;13.588;2023-12-14T04:50:08;2.93;99.99
68977;SHT31;56029;52.568;13.588;2023-12-14T04:52:33;2.96;99.99
68977;SHT31;56029;52.568;13.588;2023-12-14T04:54:59;2.93;99.99
68977;SHT31;56029;52.568;13.588;2023-12-14T04:57:24;2.86;99.99
68977;SHT31;56029;52.568;13.588;2023-12-14T04:59:50;2.93;99.99
68977;SHT31;56029;52.568;13.588;2023-12-14T05:02:15;2.91;99.99
68977;SHT31;56029;52.568;13.588;2023-12-14T05:04:41;2.93;99.99
68977;SHT31;56029;52.568;13.588;2023-12-14T05:07:06;2.89;99.99
68977;SHT31;56029;52.568;13.588;2023-12-14T05:09:32;2.84;99.99
68977;SHT31;56029;52.568;13.588;2023-12-14T05:11:57;2.91;99.99
68977;SHT31;56029;52.568;13.588;2023-12-14T05:14:23;2.86;99.99
68977;SHT31;56029;52.568;13.588;2023-12-14T05:16:49;2.84;99.99
68977;SHT31;56029;52.568;13.588;2023-12-14T05:19:14;2.87;99.99
68977;SHT31;56029;52.568;13.588;2023-12-14T05:21:40;2.89;99.99
68977;SHT31;56029;52.568;13.588;2023-12-14T05:24:05;2.90;99.99
68977;SHT31;56029;52.568;13.588;2023-12-14T05:26:31;2.99;99.99
68977;SHT31;56029;52.568;13.588;2023-12-14T05:28:56;2.90;99.99
68977;SHT31;56029;52.568;13.588;2023-12-14T05:31:22;2.87;99.99
68977;SHT31;56029;52.568;13.588;2023-12-14T05:33:47;2.90;99.99
68977;SHT31;56029;52.568;13.588;2023-12-14T05:36:13;2.90;99.99
68977;SHT31;56029;52.568;13.588;2023-12-14T05:38:39;2.99;99.99
68977;SHT31;56029;52.568;13.588;2023-12-14T05:41:05;3.00;99.99
68977;SHT31;56029;52.568;13.588;2023-12-14T05:43:31;2.91;99.99
68977;SHT31;56029;52.568;13.588;2023-12-14T05:45:56;2.89;99.99
68977;SHT31;56029;52.568;13.588;2023-12-14T05:48:22;2.90;99.99
68977;SHT31;56029;52.568;13.588;2023-12-14T05:50:47;2.99;99.99
68977;SHT31;56029;52.568;13.588;2023-12-14T05:53:13;3.01;99.99
68977;SHT31;56029;52.568;13.588;2023-12-14T05:55:38;2.93;99.99
68977;SHT31;56029;52.568;13.588;2023-12-14T05:58:04;3.04;99.99
68977;SHT31;56029;52.568;13.588;2023-12-14T06:00:29;3.05;99.99
68977;SHT31;56029;52.568;13.588;2023-12-14T06:02:55;3.03;99.99
68977;SHT31;56029;52.568;13.588;2023-12-14T06:05:21;2.99;99.99
68977;SHT31;56029;52.568;13.588;2023-12-14T06:07:46;2.96;99.99
68977;SHT31;56029;52.568;13.588;2023-12-14T06:10:12;2.97;99.99
68977;SHT31;56029;52.568;13.588;2023-12-14T06:12:38;3.01;99.99
68977;SHT31;56029;52.568;13.588;2023-12-14T06:15:07;3.00;99.99
68977;SHT31;56029;52.568;13.588;2023-12-14T06:17:33;2.99;99.99
68977;SHT31;56029;52.568;13.588;2023-12-14T06:19:58;2.99;99.99
68977;SHT31;56029;52.568;13.588;2023-12-14T06:22:24;3.08;99.99
68977;SHT31;56029;52.568;13.588;2023-12-14T06:24:49;2.97;99.99
68977;SHT31;56029;52.568;13.588;2023-12-14T06:27:15;3.00;99.99
68977;SHT31;56029;52.568;13.588;2023-12-14T06:29:40;3.05;99.99
68977;SHT31;56029;52.568;13.588;2023-12-14T06:32:06;2.93;99.99
68977;SHT31;56029;52.568;13.588;2023-12-14T06:34:31;2.91;99.99
68977;SHT31;56029;52.568;13.588;2023-12-14T06:36:57;3.01;99.99
68977;SHT31;56029;52.568;13.588;2023-12-14T06:39:22;2.94;99.99
68977;SHT31;56029;52.568;13.588;2023-12-14T06:41:48;2.93;99.99
68977;SHT31;56029;52.568;13.588;2023-12-14T06:44:14;2.97;99.99
68977;SHT31;56029;52.568;13.588;2023-12-14T06:46:39;2.96;99.99
68977;SHT31;56029;52.568;13.588;2023-12-14T06:49:04;3.00;99.99
68977;SHT31;56029;52.568;13.588;2023-12-14T06:51:30;3.08;99.99
68977;SHT31;56029;52.568;13.588;2023-12-14T06:53:56;3.04;99.99
68977;SHT31;56029;52.568;13.588;2023-12-14T06:56:21;3.04;99.99
68977;SHT31;56029;52.568;13.588;2023-12-14T06:58:47;3.04;99.99
68977;SHT31;56029;52.568;13.588;2023-12-14T07:01:13;3.01;99.99
68977;SHT31;56029;52.568;13.588;2023-12-14T07:03:42;2.99;99.99
68977;SHT31;56029;52.568;13.588;2023-12-14T07:06:11;3.07;99.99
68977;SHT31;56029;52.568;13.588;2023-12-14T07:08:37;3.01;99.99
68977;SHT31;56029;52.568;13.588;2023-12-14T07:11:03;3.01;99.99
68977;SHT31;56029;52.568;13.588;2023-12-14T07:13:28;3.04;99.99
68977;SHT31;56029;52.568;13.588;2023-12-14T07:15:54;2.94;99.99
68977;SHT31;56029;52.568;13.588;2023-12-14T07:18:19;3.04;99.99
68977;SHT31;56029;52.568;13.588;2023-12-14T07:20:45;3.11;99.99
68977;SHT31;56029;52.568;13.588;2023-12-14T07:23:10;3.01;99.99
68977;SHT31;56029;52.568;13.588;2023-12-14T07:25:36;3.05;99.99
68977;SHT31;56029;52.568;13.588;2023-12-14T07:28:01;3.05;99.99
68977;SHT31;56029;52.568;13.588;2023-12-14T07:30:27;3.07;99.99
68977;SHT31;56029;52.568;13.588;2023-12-14T07:32:53;3.05;99.99
68977;SHT31;56029;52.568;13.588;2023-12-14T07:35:18;3.10;99.99
68977;SHT31;56029;52.568;13.588;2023-12-14T07:37:44;3.17;99.99
68977;SHT31;56029;52.568;13.588;2023-12-14T07:40:09;3.17;99.99
68977;SHT31;56029;52.568;13.588;2023-12-14T07:42:35;3.07;99.99
68977;SHT31;56029;52.568;13.588;2023-12-14T07:45:00;3.08;99.99
68977;SHT31;56029;52.568;13.588;2023-12-14T07:47:26;2.99;99.99
68977;SHT31;56029;52.568;13.588;2023-12-14T07:49:51;3.08;99.99
68977;SHT31;56029;52.568;13.588;2023-12-14T07:52:17;3.10;99.99
68977;SHT31;56029;52.568;13.588;2023-12-14T07:54:43;3.10;99.99
68977;SHT31;56029;52.568;13.588;2023-12-14T07:57:08;3.11;99.99
68977;SHT31;56029;52.568;13.588;2023-12-14T07:59:34;3.07;99.99
68977;SHT31;56029;52.568;13.588;2023-12-14T08:01:59;3.12;99.99
68977;SHT31;56029;52.568;13.588;2023-12-14T08:04:25;3.14;99.99
68977;SHT31;56029;52.568;13.588;2023-12-14T08:06:50;3.17;99.99
68977;SHT31;56029;52.568;13.588;2023-12-14T08:09:16;3.05;99.99
68977;SHT31;56029;52.568;13.588;2023-12-14T08:11:41;3.01;99.99
68977;SHT31;56029;52.568;13.588;2023-12-14T08:14:07;3.05;99.99
68977;SHT31;56029;52.568;13.588;2023-12-14T08:16:32;3.05;99.99
68977;SHT31;56029;52.568;13.588;2023-12-14T08:18:58;3.10;99.99
68977;SHT31;56029;52.568;13.588;2023-12-14T08:21:23;3.12;99.99
68977;SHT31;56029;52.568;13.588;2023-12-14T08:23:49;3.20;99.99
68977;SHT31;56029;52.568;13.588;2023-12-14T08:26:14;3.14;99.99
68977;SHT31;56029;52.568;13.588;2023-12-14T08:28:40;3.17;99.99
68977;SHT31;56029;52.568;13.588;2023-12-14T08:31:05;3.08;99.99
68977;SHT31;56029;52.568;13.588;2023-12-14T08:33:31;3.05;99.99
68977;SHT31;56029;52.568;13.588;2023-12-14T08:35:56;3.20;99.99
68977;SHT31;56029;52.568;13.588;2023-12-14T08:38:22;3.21;99.99
68977;SHT31;56029;52.568;13.588;2023-12-14T08:40:48;3.18;99.99
68977;SHT31;56029;52.568;13.588;2023-12-14T08:43:13;3.12;99.99
68977;SHT31;56029;52.568;13.588;2023-12-14T08:45:39;3.17;99.99
68977;SHT31;56029;52.568;13.588;2023-12-14T08:48:05;3.22;99.99
68977;SHT31;56029;52.568;13.588;2023-12-14T08:50:30;3.32;99.99
68977;SHT31;56029;52.568;13.588;2023-12-14T08:52:56;3.34;99.99
68977;SHT31;56029;52.568;13.588;2023-12-14T08:55:22;3.32;99.99
68977;SHT31;56029;52.568;13.588;2023-12-14T08:57:47;3.22;99.99
68977;SHT31;56029;52.568;13.588;2023-12-14T09:00:13;3.24;99.99
68977;SHT31;56029;52.568;13.588;2023-12-14T09:02:39;3.28;99.99
68977;SHT31;56029;52.568;13.588;2023-12-14T09:05:04;3.28;99.99
68977;SHT31;56029;52.568;13.588;2023-12-14T09:07:30;3.35;99.99
68977;SHT31;56029;52.568;13.588;2023-12-14T09:09:56;3.41;99.99
68977;SHT31;56029;52.568;13.588;2023-12-14T09:12:21;3.22;99.99
68977;SHT31;56029;52.568;13.588;2023-12-14T09:14:47;3.20;99.99
68977;SHT31;56029;52.568;13.588;2023-12-14T09:17:13;3.25;99.99
68977;SHT31;56029;52.568;13.588;2023-12-14T09:19:38;3.22;99.99
68977;SHT31;56029;52.568;13.588;2023-12-14T09:22:04;3.27;99.99
68977;SHT31;56029;52.568;13.588;2023-12-14T09:24:29;3.21;99.99
68977;SHT31;56029;52.568;13.588;2023-12-14T09:26:55;3.22;99.99
68977;SHT31;56029;52.568;13.588;2023-12-14T09:29:20;3.21;99.99
68977;SHT31;56029;52.568;13.588;2023-12-14T09:31:46;3.22;99.99
68977;SHT31;56029;52.568;13.588;2023-12-14T09:34:12;3.29;99.99
68977;SHT31;56029;52.568;13.588;2023-12-14T09:36:38;3.15;99.99
68977;SHT31;56029;52.568;13.588;2023-12-14T09:39:04;3.21;99.99
68977;SHT31;56029;52.568;13.588;2023-12-14T09:41:30;3.22;99.99
68977;SHT31;56029;52.568;13.588;2023-12-14T09:43:55;3.24;99.99
68977;SHT31;56029;52.568;13.588;2023-12-14T09:46:21;3.18;99.99
68977;SHT31;56029;52.568;13.588;2023-12-14T09:48:46;3.21;99.99
68977;SHT31;56029;52.568;13.588;2023-12-14T09:51:13;3.22;99.99
68977;SHT31;56029;52.568;13.588;2023-12-14T09:53:38;3.29;99.99
68977;SHT31;56029;52.568;13.588;2023-12-14T09:56:04;3.24;99.99
68977;SHT31;56029;52.568;13.588;2023-12-14T09:58:33;3.22;99.99
68977;SHT31;56029;52.568;13.588;2023-12-14T10:00:58;3.28;99.99
68977;SHT31;56029;52.568;13.588;2023-12-14T10:03:26;3.31;99.99
68977;SHT31;56029;52.568;13.588;2023-12-14T10:05:52;3.32;99.99
68977;SHT31;56029;52.568;13.588;2023-12-14T10:08:18;3.25;99.99
68977;SHT31;56029;52.568;13.588;2023-12-14T10:10:45;3.42;99.99
68977;SHT31;56029;52.568;13.588;2023-12-14T10:13:11;3.25;99.99
68977;SHT31;56029;52.568;13.588;2023-12-14T10:15:43;3.21;99.99
68977;SHT31;56029;52.568;13.588;2023-12-14T10:18:09;3.20;99.99
68977;SHT31;56029;52.568;13.588;2023-12-14T10:20:35;3.27;99.99
68977;SHT31;56029;52.568;13.588;2023-12-14T10:23:00;3.21;99.99
68977;SHT31;56029;52.568;13.588;2023-12-14T10:25:26;3.28;99.99
68977;SHT31;56029;52.568;13.588;2023-12-14T10:27:52;3.24;99.99
68977;SHT31;56029;52.568;13.588;2023-12-14T10:30:18;3.18;99.99
68977;SHT31;56029;52.568;13.588;2023-12-14T10:32:43;3.22;99.99
68977;SHT31;56029;52.568;13.588;2023-12-14T10:35:09;3.31;99.99
68977;SHT31;56029;52.568;13.588;2023-12-14T10:37:37;3.31;99.99
68977;SHT31;56029;52.568;13.588;2023-12-14T10:40:03;3.27;99.99
68977;SHT31;56029;52.568;13.588;2023-12-14T10:42:30;3.29;99.99
68977;SHT31;56029;52.568;13.588;2023-12-14T10:44:55;3.35;99.99
68977;SHT31;56029;52.568;13.588;2023-12-14T10:47:21;3.34;99.99
68977;SHT31;56029;52.568;13.588;2023-12-14T10:49:50;3.32;99.99
68977;SHT31;56029;52.568;13.588;2023-12-14T10:52:16;3.45;99.99
68977;SHT31;56029;52.568;13.588;2023-12-14T10:54:43;3.41;99.99
68977;SHT31;56029;52.568;13.588;2023-12-14T10:57:09;3.39;99.99
68977;SHT31;56029;52.568;13.588;2023-12-14T10:59:35;3.36;99.99
68977;SHT31;56029;52.568;13.588;2023-12-14T11:02:06;3.42;99.99
68977;SHT31;56029;52.568;13.588;2023-12-14T11:04:56;3.43;99.99
68977;SHT31;56029;52.568;13.588;2023-12-14T11:10:12;3.38;99.99
68977;SHT31;56029;52.568;13.588;2023-12-14T11:12:50;3.45;99.99
68977;SHT31;56029;52.568;13.588;2023-12-14T11:15:18;3.60;99.99
68977;SHT31;56029;52.568;13.588;2023-12-14T11:17:43;3.60;99.99
68977;SHT31;56029;52.568;13.588;2023-12-14T11:20:24;3.62;99.92
68977;SHT31;56029;52.568;13.588;2023-12-14T11:22:51;3.59;99.77
68977;SHT31;56029;52.568;13.588;2023-12-14T11:25:20;3.52;99.76
68977;SHT31;56029;52.568;13.588;2023-12-14T11:27:48;3.55;99.99
68977;SHT31;56029;52.568;13.588;2023-12-14T11:30:15;3.56;99.69
68977;SHT31;56029;52.568;13.588;2023-12-14T11:32:40;3.54;99.99
68977;SHT31;56029;52.568;13.588;2023-12-14T11:35:06;3.68;99.99
68977;SHT31;56029;52.568;13.588;2023-12-14T11:37:32;3.62;99.99
68977;SHT31;56029;52.568;13.588;2023-12-14T11:39:57;3.79;99.94
68977;SHT31;56029;52.568;13.588;2023-12-14T11:42:23;3.80;99.42
68977;SHT31;56029;52.568;13.588;2023-12-14T11:44:48;3.86;99.92
68977;SHT31;56029;52.568;13.588;2023-12-14T11:47:14;3.78;99.90
68977;SHT31;56029;52.568;13.588;2023-12-14T11:49:39;3.82;99.99
68977;SHT31;56029;52.568;13.588;2023-12-14T11:52:05;3.56;99.05
68977;SHT31;56029;52.568;13.588;2023-12-14T11:54:30;3.66;99.21
68977;SHT31;56029;52.568;13.588;2023-12-14T11:56:56;3.69;99.60
68977;SHT31;56029;52.568;13.588;2023-12-14T11:59:22;3.62;99.99
68977;SHT31;56029;52.568;13.588;2023-12-14T12:01:58;3.59;99.76
68977;SHT31;56029;52.568;13.588;2023-12-14T12:04:24;3.63;99.99
68977;SHT31;56029;52.568;13.588;2023-12-14T12:06:50;3.72;99.89
68977;SHT31;56029;52.568;13.588;2023-12-14T12:09:40;3.66;99.96
68977;SHT31;56029;52.568;13.588;2023-12-14T12:12:10;3.70;99.77
68977;SHT31;56029;52.568;13.588;2023-12-14T12:14:37;3.62;99.74
68977;SHT31;56029;52.568;13.588;2023-12-14T12:17:04;3.72;99.99
68977;SHT31;56029;52.568;13.588;2023-12-14T12:19:34;3.68;99.99
68977;SHT31;56029;52.568;13.588;2023-12-14T12:21:59;3.76;99.87
68977;SHT31;56029;52.568;13.588;2023-12-14T12:24:25;3.70;99.70
68977;SHT31;56029;52.568;13.588;2023-12-14T12:26:51;3.60;99.68
68977;SHT31;56029;52.568;13.588;2023-12-14T12:29:16;3.73;99.62
68977;SHT31;56029;52.568;13.588;2023-12-14T12:31:43;3.63;99.72
68977;SHT31;56029;52.568;13.588;2023-12-14T12:34:08;3.75;99.85
68977;SHT31;56029;52.568;13.588;2023-12-14T12:36:34;3.80;99.99
68977;SHT31;56029;52.568;13.588;2023-12-14T12:39:00;3.69;99.57
68977;SHT31;56029;52.568;13.588;2023-12-14T12:41:25;3.66;99.56
68977;SHT31;56029;52.568;13.588;2023-12-14T12:43:51;3.68;99.86
68977;SHT31;56029;52.568;13.588;2023-12-14T12:46:16;3.73;99.99
68977;SHT31;56029;52.568;13.588;2023-12-14T12:48:42;3.62;99.99
68977;SHT31;56029;52.568;13.588;2023-12-14T12:51:07;3.63;99.99
68977;SHT31;56029;52.568;13.588;2023-12-14T12:53:33;3.59;99.99
68977;SHT31;56029;52.568;13.588;2023-12-14T12:55:58;3.59;99.99
68977;SHT31;56029;52.568;13.588;2023-12-14T12:58:24;3.52;99.99
68977;SHT31;56029;52.568;13.588;2023-12-14T13:00:49;3.58;99.99
68977;SHT31;56029;52.568;13.588;2023-12-14T13:03:15;3.58;99.99
68977;SHT31;56029;52.568;13.588;2023-12-14T13:05:40;3.60;99.99
68977;SHT31;56029;52.568;13.588;2023-12-14T13:08:06;3.62;99.99
68977;SHT31;56029;52.568;13.588;2023-12-14T13:10:31;3.59;99.99
68977;SHT31;56029;52.568;13.588;2023-12-14T13:12:57;3.46;99.99
68977;SHT31;56029;52.568;13.588;2023-12-14T13:15:23;3.34;99.99
68977;SHT31;56029;52.568;13.588;2023-12-14T13:17:48;3.45;99.99
68977;SHT31;56029;52.568;13.588;2023-12-14T13:20:14;3.56;99.99
68977;SHT31;56029;52.568;13.588;2023-12-14T13:22:40;3.41;99.99
68977;SHT31;56029;52.568;13.588;2023-12-14T13:25:05;3.54;99.99
68977;SHT31;56029;52.568;13.588;2023-12-14T13:27:31;3.56;99.99
68977;SHT31;56029;52.568;13.588;2023-12-14T13:29:56;3.54;99.95
68977;SHT31;56029;52.568;13.588;2023-12-14T13:32:22;3.55;99.99
68977;SHT31;56029;52.568;13.588;2023-12-14T13:34:47;3.43;99.99
68977;SHT31;56029;52.568;13.588;2023-12-14T13:37:13;3.49;99.99
68977;SHT31;56029;52.568;13.588;2023-12-14T13:39:38;3.48;99.99
68977;SHT31;56029;52.568;13.588;2023-12-14T13:42:05;3.45;99.99
68977;SHT31;56029;52.568;13.588;2023-12-14T13:44:30;3.39;99.99
68977;SHT31;56029;52.568;13.588;2023-12-14T13:46:56;3.42;99.99
68977;SHT31;56029;52.568;13.588;2023-12-14T13:49:21;3.49;99.99
68977;SHT31;56029;52.568;13.588;2023-12-14T13:51:47;3.46;99.99
68977;SHT31;56029;52.568;13.588;2023-12-14T13:54:12;3.46;99.99
68977;SHT31;56029;52.568;13.588;2023-12-14T13:56:38;3.51;99.99
68977;SHT31;56029;52.568;13.588;2023-12-14T13:59:03;3.51;99.89
68977;SHT31;56029;52.568;13.588;2023-12-14T14:01:29;3.52;99.99
68977;SHT31;56029;52.568;13.588;2023-12-14T14:03:54;3.52;99.99
68977;SHT31;56029;52.568;13.588;2023-12-14T14:06:20;3.49;99.99
68977;SHT31;56029;52.568;13.588;2023-12-14T14:08:45;3.46;99.99
68977;SHT31;56029;52.568;13.588;2023-12-14T14:11:11;3.45;99.99
68977;SHT31;56029;52.568;13.588;2023-12-14T14:13:36;3.48;99.99
68977;SHT31;56029;52.568;13.588;2023-12-14T14:16:02;3.54;99.99
68977;SHT31;56029;52.568;13.588;2023-12-14T14:18:28;3.45;99.99
68977;SHT31;56029;52.568;13.588;2023-12-14T14:20:53;3.46;99.58
68977;SHT31;56029;52.568;13.588;2023-12-14T14:23:19;3.52;99.73
68977;SHT31;56029;52.568;13.588;2023-12-14T14:25:45;3.54;99.99
68977;SHT31;56029;52.568;13.588;2023-12-14T14:28:10;3.41;99.99
68977;SHT31;56029;52.568;13.588;2023-12-14T14:30:36;3.48;99.99
68977;SHT31;56029;52.568;13.588;2023-12-14T14:33:01;3.49;99.99
68977;SHT31;56029;52.568;13.588;2023-12-14T14:35:27;3.42;99.99
68977;SHT31;56029;52.568;13.588;2023-12-14T14:37:52;3.48;99.99
68977;SHT31;56029;52.568;13.588;2023-12-14T14:40:18;3.45;99.99
68977;SHT31;56029;52.568;13.588;2023-12-14T14:42:43;3.41;99.99
68977;SHT31;56029;52.568;13.588;2023-12-14T14:45:10;3.52;99.99
68977;SHT31;56029;52.568;13.588;2023-12-14T14:47:36;3.48;99.99
68977;SHT31;56029;52.568;13.588;2023-12-14T14:50:03;3.51;99.99
68977;SHT31;56029;52.568;13.588;2023-12-14T14:52:28;3.52;99.99
68977;SHT31;56029;52.568;13.588;2023-12-14T14:54:54;3.56;99.99
68977;SHT31;56029;52.568;13.588;2023-12-14T14:57:19;3.56;99.99
68977;SHT31;56029;52.568;13.588;2023-12-14T14:59:45;3.62;99.99
68977;SHT31;56029;52.568;13.588;2023-12-14T15:02:11;3.59;99.99
68977;SHT31;56029;52.568;13.588;2023-12-14T15:04:36;3.58;99.99
68977;SHT31;56029;52.568;13.588;2023-12-14T15:07:03;3.52;99.99
68977;SHT31;56029;52.568;13.588;2023-12-14T15:09:29;3.42;99.99
68977;SHT31;56029;52.568;13.588;2023-12-14T15:11:54;3.48;99.99
68977;SHT31;56029;52.568;13.588;2023-12-14T15:14:20;3.48;99.99
68977;SHT31;56029;52.568;13.588;2023-12-14T15:16:45;3.34;99.99
68977;SHT31;56029;52.568;13.588;2023-12-14T15:19:11;3.29;99.99
68977;SHT31;56029;52.568;13.588;2023-12-14T15:21:37;3.24;99.99
68977;SHT31;56029;52.568;13.588;2023-12-14T15:24:03;3.27;99.99